Time;durP1;ratioP1;P1;durP2;ratioP2;P2;SDS_P1;SDS_P2;PMS_P1;PMS_P2;Temp;Humidity;BMP_temperature;BMP_pressure;BME280_temperature;BME280_humidity;BME280_pressure;Samples;Min_cycle;Max_cycle;Signal;HPM_P1;HPM_P2
2021/12/13 00:01:27;;;;;;;16.80;11.93;;;;;;;;;;4925464;29;20189;-73
2021/12/13 00:03:57;;;;;;;15.47;10.60;;;;;;;;;;4929302;29;20186;-73
2021/12/13 00:06:26;;;;;;;15.40;10.43;;;;;;;;;;4934483;29;20520;-73
2021/12/13 00:08:54;;;;;;;17.27;12.60;;;;;;;;;;4921342;29;20190;-73
2021/12/13 00:11:22;;;;;;;19.40;11.40;;;;;;;;;;4926160;29;20186;-73
2021/12/13 00:13:52;;;;;;;19.93;13.20;;;;;;;;;;4922373;29;20209;-73
2021/12/13 00:16:30;;;;;;;21.30;11.50;;;;;;;;;;4921618;29;20210;-73
2021/12/13 00:18:58;;;;;;;22.07;12.63;;;;;;;;;;4926930;29;20572;-73
2021/12/13 00:21:29;;;;;;;15.90;11.60;;;;;;;;;;4928446;29;20182;-73
2021/12/13 00:23:58;;;;;;;19.80;11.50;;;;;;;;;;4942725;29;20236;-73
2021/12/13 00:26:36;;;;;;;19.37;12.27;;;;;;;;;;4923348;29;20187;-73
2021/12/13 00:29:11;;;;;;;17.57;12.27;;;;;;;;;;4925251;29;20225;-73
2021/12/13 00:31:48;;;;;;;15.90;10.00;;;;;;;;;;4925849;29;20285;-73
2021/12/13 00:34:28;;;;;;;17.20;11.40;;;;;;;;;;4924709;29;20598;-73
2021/12/13 00:37:18;;;;;;;20.70;11.70;;;;;;;;;;4927396;29;20193;-74
2021/12/13 00:39:50;;;;;;;14.50;10.27;;;;;;;;;;4910001;29;20277;-73
2021/12/13 00:42:17;;;;;;;16.23;10.23;;;;;;;;;;4924501;29;20505;-73
2021/12/13 00:44:56;;;;;;;16.90;11.67;;;;;;;;;;4943217;28;20193;-73
2021/12/13 00:47:25;;;;;;;12.73;9.30;;;;;;;;;;4925618;29;20798;-73
2021/12/13 00:49:57;;;;;;;20.37;11.77;;;;;;;;;;4933061;29;20186;-73
2021/12/13 00:52:24;;;;;;;16.93;10.93;;;;;;;;;;4939977;29;20219;-73
2021/12/13 00:54:52;;;;;;;15.30;10.30;;;;;;;;;;4928053;29;20705;-73
2021/12/13 00:57:22;;;;;;;12.13;9.40;;;;;;;;;;4925618;29;20191;-73
2021/12/13 00:59:50;;;;;;;12.90;9.17;;;;;;;;;;4945299;28;20183;-73
2021/12/13 01:02:19;;;;;;;12.50;9.13;;;;;;;;;;4943475;28;20708;-73
2021/12/13 01:04:51;;;;;;;12.80;9.53;;;;;;;;;;4926789;29;20550;-73
2021/12/13 01:07:33;;;;;;;13.70;9.10;;;;;;;;;;4923614;29;20197;-73
2021/12/13 01:10:18;;;;;;;12.83;9.30;;;;;;;;;;4925744;29;20194;-73
2021/12/13 01:12:45;;;;;;;16.17;9.60;;;;;;;;;;4924229;29;20208;-73
2021/12/13 01:15:13;;;;;;;11.87;8.57;;;;;;;;;;4930753;29;20225;-73
2021/12/13 01:17:53;;;;;;;13.47;9.60;;;;;;;;;;4928256;29;20214;-73
2021/12/13 01:20:32;;;;;;;13.57;9.53;;;;;;;;;;4927612;29;20185;-73
2021/12/13 01:23:04;;;;;;;12.80;9.43;;;;;;;;;;4942600;28;20210;-73
2021/12/13 01:26:00;;;;;;;12.67;9.47;;;;;;;;;;4927520;29;20186;-73
2021/12/13 01:28:34;;;;;;;13.40;10.20;;;;;;;;;;4926861;29;20188;-73
2021/12/13 01:31:03;;;;;;;14.63;9.27;;;;;;;;;;4927933;29;20631;-73
2021/12/13 01:33:30;;;;;;;12.27;9.70;;;;;;;;;;4929110;29;20226;-73
2021/12/13 01:36:00;;;;;;;10.87;8.37;;;;;;;;;;4931753;29;20228;-73
2021/12/13 01:38:34;;;;;;;13.90;9.30;;;;;;;;;;4946082;29;20273;-73
2021/12/13 01:41:06;;;;;;;12.03;8.63;;;;;;;;;;4946708;28;20553;-73
2021/12/13 01:43:33;;;;;;;13.27;9.57;;;;;;;;;;4931676;29;20803;-73
2021/12/13 01:45:59;;;;;;;13.87;9.13;;;;;;;;;;4932850;29;20351;-73
2021/12/13 01:48:28;;;;;;;15.57;10.03;;;;;;;;;;4929160;29;20233;-73
2021/12/13 01:51:04;;;;;;;13.97;9.20;;;;;;;;;;4931048;29;20654;-73
2021/12/13 01:53:37;;;;;;;11.30;8.67;;;;;;;;;;4927214;29;20291;-73
2021/12/13 01:56:11;;;;;;;13.73;9.23;;;;;;;;;;4923852;29;20218;-73
2021/12/13 01:58:42;;;;;;;13.47;9.77;;;;;;;;;;4927773;29;20204;-73
2021/12/13 02:01:09;;;;;;;13.80;9.97;;;;;;;;;;4926174;29;20664;-73
2021/12/13 02:03:43;;;;;;;14.57;9.97;;;;;;;;;;4927793;29;20202;-73
2021/12/13 02:06:12;;;;;;;15.43;10.67;;;;;;;;;;4923581;29;20221;-73
2021/12/13 02:08:39;;;;;;;10.90;8.63;;;;;;;;;;4947812;28;20182;-73
2021/12/13 02:11:05;;;;;;;14.40;9.60;;;;;;;;;;4928653;29;20185;-73
2021/12/13 02:13:39;;;;;;;14.37;9.17;;;;;;;;;;4928135;29;20280;-73
2021/12/13 02:18:52;;;;;;;12.57;8.90;;;;;;;;;;4930488;29;20677;-73
2021/12/13 02:21:29;;;;;;;14.00;9.70;;;;;;;;;;4928409;29;20190;-73
2021/12/13 02:23:59;;;;;;;18.13;11.20;;;;;;;;;;4932594;29;20190;-73
2021/12/13 02:26:27;;;;;;;17.37;10.53;;;;;;;;;;4930734;29;20212;-73
2021/12/13 02:29:16;;;;;;;14.97;10.30;;;;;;;;;;4930272;29;20183;-73
2021/12/13 02:31:42;;;;;;;14.83;10.50;;;;;;;;;;4930675;29;20193;-73
2021/12/13 02:34:11;;;;;;;16.20;10.33;;;;;;;;;;4933011;29;20721;-73
2021/12/13 02:36:39;;;;;;;13.20;9.53;;;;;;;;;;4924978;29;20214;-73
2021/12/13 02:39:18;;;;;;;14.93;9.50;;;;;;;;;;4919629;28;20173;-73
2021/12/13 02:41:44;;;;;;;11.30;8.43;;;;;;;;;;4933707;28;22317;-73
2021/12/13 02:44:22;;;;;;;11.27;8.03;;;;;;;;;;4935625;28;20204;-73
2021/12/13 02:46:49;;;;;;;18.87;11.03;;;;;;;;;;4927189;29;20673;-73
2021/12/13 02:49:16;;;;;;;17.80;10.10;;;;;;;;;;4927998;29;20305;-73
2021/12/13 02:51:42;;;;;;;18.90;10.97;;;;;;;;;;4946301;28;20269;-73
2021/12/13 02:54:16;;;;;;;14.50;10.00;;;;;;;;;;4922790;29;20221;-73
2021/12/13 02:56:47;;;;;;;15.60;10.83;;;;;;;;;;4929720;29;20264;-73
2021/12/13 02:59:14;;;;;;;14.90;9.67;;;;;;;;;;4910963;29;20658;-73
2021/12/13 03:01:45;;;;;;;15.40;8.83;;;;;;;;;;4927234;29;20657;-73
2021/12/13 03:04:12;;;;;;;15.87;9.47;;;;;;;;;;4928347;29;20182;-73
2021/12/13 03:06:44;;;;;;;16.33;10.27;;;;;;;;;;4923569;29;20198;-73
2021/12/13 03:09:12;;;;;;;12.27;8.40;;;;;;;;;;4928967;29;20186;-73
2021/12/13 03:11:38;;;;;;;15.10;9.27;;;;;;;;;;4931387;29;20270;-73
2021/12/13 03:14:16;;;;;;;13.40;9.50;;;;;;;;;;4925650;29;20877;-73
2021/12/13 03:16:46;;;;;;;20.67;10.80;;;;;;;;;;4929841;29;20308;-73
2021/12/13 03:19:31;;;;;;;13.33;9.50;;;;;;;;;;4933057;29;20178;-73
2021/12/13 03:22:10;;;;;;;12.47;9.40;;;;;;;;;;4929217;29;20224;-73
2021/12/13 03:24:36;;;;;;;13.23;8.77;;;;;;;;;;4923660;29;20195;-73
2021/12/13 03:27:06;;;;;;;16.57;9.63;;;;;;;;;;4931184;29;20213;-73
2021/12/13 03:29:52;;;;;;;12.03;8.60;;;;;;;;;;4931598;29;20708;-73
2021/12/13 03:32:19;;;;;;;12.00;8.33;;;;;;;;;;4929926;29;20251;-73
2021/12/13 03:34:55;;;;;;;13.17;8.67;;;;;;;;;;4930794;29;20584;-73
2021/12/13 03:37:23;;;;;;;11.97;7.80;;;;;;;;;;4931862;29;20720;-73
2021/12/13 03:39:51;;;;;;;13.40;8.63;;;;;;;;;;4930613;29;20292;-73
2021/12/13 03:42:23;;;;;;;11.40;7.73;;;;;;;;;;4927912;29;20220;-73
2021/12/13 03:44:52;;;;;;;13.57;10.27;;;;;;;;;;4926785;29;20197;-74
2021/12/13 03:47:20;;;;;;;15.10;8.97;;;;;;;;;;4926571;29;20275;-74
2021/12/13 03:49:55;;;;;;;13.03;9.13;;;;;;;;;;4931876;29;20237;-74
2021/12/13 03:52:22;;;;;;;13.17;8.90;;;;;;;;;;4928819;29;20260;-75
2021/12/13 03:54:50;;;;;;;13.93;10.13;;;;;;;;;;4930837;29;20221;-75
2021/12/13 03:57:17;;;;;;;16.80;10.20;;;;;;;;;;4931585;29;20195;-74
2021/12/13 03:59:43;;;;;;;13.80;9.30;;;;;;;;;;4933051;29;20528;-74
2021/12/13 04:02:13;;;;;;;14.13;9.33;;;;;;;;;;4931799;29;20217;-74
2021/12/13 04:04:41;;;;;;;12.03;8.87;;;;;;;;;;4934619;29;20270;-75
2021/12/13 04:07:17;;;;;;;10.70;8.17;;;;;;;;;;4947607;29;20552;-74
2021/12/13 04:09:44;;;;;;;11.13;8.33;;;;;;;;;;4947376;28;20228;-74
2021/12/13 04:12:13;;;;;;;10.13;7.97;;;;;;;;;;4933448;29;20209;-74
2021/12/13 04:14:41;;;;;;;11.37;7.90;;;;;;;;;;4950149;28;20186;-75
2021/12/13 04:17:33;;;;;;;10.97;8.37;;;;;;;;;;4933901;29;20178;-74
2021/12/13 04:20:00;;;;;;;10.10;8.27;;;;;;;;;;4934203;29;20193;-75
2021/12/13 04:22:28;;;;;;;10.93;8.53;;;;;;;;;;4933219;29;20236;-75
2021/12/13 04:25:00;;;;;;;14.07;9.20;;;;;;;;;;4947786;28;20190;-74
2021/12/13 04:27:28;;;;;;;12.57;9.00;;;;;;;;;;4930441;29;20242;-74
2021/12/13 04:29:58;;;;;;;12.87;8.77;;;;;;;;;;4927918;29;20186;-75
2021/12/13 04:32:24;;;;;;;11.73;9.07;;;;;;;;;;4930818;29;20206;-74
2021/12/13 04:34:58;;;;;;;12.03;9.43;;;;;;;;;;4934878;29;20757;-75
2021/12/13 04:37:25;;;;;;;16.17;10.17;;;;;;;;;;4933290;29;20560;-74
2021/12/13 04:39:58;;;;;;;15.33;10.07;;;;;;;;;;4926310;29;20218;-73
2021/12/13 04:42:26;;;;;;;13.33;9.27;;;;;;;;;;4925500;29;20202;-73
2021/12/13 04:44:58;;;;;;;13.23;9.43;;;;;;;;;;4932932;29;20213;-73
2021/12/13 04:47:34;;;;;;;15.70;11.03;;;;;;;;;;4933031;29;20178;-72
2021/12/13 04:50:14;;;;;;;13.47;10.10;;;;;;;;;;4932803;29;20189;-72
2021/12/13 04:52:42;;;;;;;20.17;12.03;;;;;;;;;;4934165;29;20214;-73
2021/12/13 04:55:10;;;;;;;14.77;10.33;;;;;;;;;;4928655;29;20244;-73
2021/12/13 04:57:37;;;;;;;15.77;10.27;;;;;;;;;;4926181;29;20192;-72
2021/12/13 05:00:07;;;;;;;15.07;11.07;;;;;;;;;;4943835;28;20190;-72
2021/12/13 05:02:33;;;;;;;17.63;10.97;;;;;;;;;;4934188;29;20214;-73
2021/12/13 05:05:01;;;;;;;15.97;11.10;;;;;;;;;;4912317;29;20196;-72
2021/12/13 05:07:29;;;;;;;14.10;10.27;;;;;;;;;;4933650;29;20657;-72
2021/12/13 05:09:55;;;;;;;12.83;10.23;;;;;;;;;;4927412;29;20194;-72
2021/12/13 05:12:25;;;;;;;17.90;11.93;;;;;;;;;;4935004;29;20216;-72
2021/12/13 05:14:59;;;;;;;16.40;12.30;;;;;;;;;;4932829;29;20780;-72
2021/12/13 05:17:27;;;;;;;15.30;9.87;;;;;;;;;;4933010;29;20778;-72
2021/12/13 05:20:12;;;;;;;13.77;10.43;;;;;;;;;;4926365;29;20189;-72
2021/12/13 05:22:46;;;;;;;14.97;10.43;;;;;;;;;;4932003;29;20304;-72
2021/12/13 05:25:19;;;;;;;12.07;9.33;;;;;;;;;;4929846;29;20194;-72
2021/12/13 05:27:46;;;;;;;14.20;10.03;;;;;;;;;;4932730;29;20193;-72
2021/12/13 05:30:24;;;;;;;28.33;16.17;;;;;;;;;;4932106;29;20218;-72
2021/12/13 05:32:53;;;;;;;14.40;10.33;;;;;;;;;;4925578;29;20236;-73
2021/12/13 05:35:24;;;;;;;13.13;9.83;;;;;;;;;;4925876;29;20217;-72
2021/12/13 05:37:53;;;;;;;15.53;10.73;;;;;;;;;;4931816;29;20201;-72
2021/12/13 05:40:25;;;;;;;13.30;10.00;;;;;;;;;;4932114;29;20196;-72
2021/12/13 05:42:54;;;;;;;13.37;10.00;;;;;;;;;;4932131;29;20296;-72
2021/12/13 05:45:29;;;;;;;12.63;9.17;;;;;;;;;;4932070;29;20220;-72
2021/12/13 05:47:58;;;;;;;12.30;9.03;;;;;;;;;;4931496;29;20188;-72
2021/12/13 05:50:31;;;;;;;12.23;9.17;;;;;;;;;;4933185;29;20194;-72
2021/12/13 05:53:06;;;;;;;13.70;9.70;;;;;;;;;;4929333;29;20223;-72
2021/12/13 05:55:44;;;;;;;12.73;9.90;;;;;;;;;;4946119;28;20216;-72
2021/12/13 05:58:10;;;;;;;11.27;8.73;;;;;;;;;;4925746;29;20196;-72
2021/12/13 06:00:40;;;;;;;12.03;9.13;;;;;;;;;;4946539;28;20201;-72
2021/12/13 06:03:09;;;;;;;12.47;9.37;;;;;;;;;;4946322;28;20202;-75
2021/12/13 06:05:37;;;;;;;15.70;10.60;;;;;;;;;;4930282;29;20193;-75
2021/12/13 06:08:05;;;;;;;12.53;9.43;;;;;;;;;;4926161;29;21202;-75
2021/12/13 06:10:40;;;;;;;13.00;9.23;;;;;;;;;;4946257;28;20712;-75
2021/12/13 06:13:08;;;;;;;11.70;9.37;;;;;;;;;;4933357;29;20653;-75
2021/12/13 06:15:42;;;;;;;10.30;8.70;;;;;;;;;;4928855;29;20218;-75
2021/12/13 06:18:34;;;;;;;20.00;10.80;;;;;;;;;;4925287;29;20201;-75
2021/12/13 06:21:19;;;;;;;18.10;10.90;;;;;;;;;;4928704;29;20686;-75
2021/12/13 06:23:47;;;;;;;17.80;11.23;;;;;;;;;;4921142;29;20253;-75
2021/12/13 06:26:14;;;;;;;15.10;11.17;;;;;;;;;;4928100;29;20194;-77
2021/12/13 06:28:42;;;;;;;19.03;13.33;;;;;;;;;;4931807;29;20692;-78
2021/12/13 06:31:14;;;;;;;16.60;11.47;;;;;;;;;;4933496;29;20264;-76
2021/12/13 06:33:45;;;;;;;21.83;14.73;;;;;;;;;;4929544;29;20693;-76
2021/12/13 06:36:12;;;;;;;16.43;11.93;;;;;;;;;;4948212;28;20210;-78
2021/12/13 06:38:46;;;;;;;16.90;11.73;;;;;;;;;;4925988;29;20190;-77
2021/12/13 06:41:15;;;;;;;14.17;11.23;;;;;;;;;;4929557;29;20189;-77
2021/12/13 06:43:52;;;;;;;15.03;10.30;;;;;;;;;;4914660;29;20737;-75
2021/12/13 06:46:25;;;;;;;28.20;18.47;;;;;;;;;;4929913;29;20200;-74
2021/12/13 06:49:00;;;;;;;24.03;15.13;;;;;;;;;;4945604;28;20190;-74
2021/12/13 06:52:05;;;;;;;24.57;17.33;;;;;;;;;;4931547;29;20181;-74
2021/12/13 06:54:55;;;;;;;26.73;16.70;;;;;;;;;;4908896;29;20187;-75
2021/12/13 06:57:30;;;;;;;18.60;12.40;;;;;;;;;;4907331;29;20569;-74
2021/12/13 07:00:00;;;;;;;17.87;12.70;;;;;;;;;;4916625;29;20225;-75
2021/12/13 07:02:36;;;;;;;17.77;12.67;;;;;;;;;;4930740;29;20403;-79
2021/12/13 07:05:08;;;;;;;17.97;12.17;;;;;;;;;;4929460;29;20193;-75
2021/12/13 07:07:49;;;;;;;19.07;13.03;;;;;;;;;;4925750;29;20213;-75
2021/12/13 07:10:18;;;;;;;32.63;18.43;;;;;;;;;;4944461;28;20198;-75
2021/12/13 07:12:46;;;;;;;40.30;23.53;;;;;;;;;;4931466;29;20221;-80
2021/12/13 07:15:22;;;;;;;22.13;15.43;;;;;;;;;;4929652;29;20210;-78
2021/12/13 07:17:59;;;;;;;33.03;20.93;;;;;;;;;;4934218;29;20649;-77
2021/12/13 07:20:26;;;;;;;21.57;14.87;;;;;;;;;;4931470;29;20553;-77
2021/12/13 07:22:57;;;;;;;18.63;13.07;;;;;;;;;;4928809;29;20304;-77
2021/12/13 07:25:23;;;;;;;15.50;11.53;;;;;;;;;;4932977;29;20225;-78
2021/12/13 07:27:50;;;;;;;19.63;13.93;;;;;;;;;;4947895;28;20276;-76
2021/12/13 07:30:28;;;;;;;16.50;12.07;;;;;;;;;;4952056;28;20561;-77
2021/12/13 07:32:58;;;;;;;21.53;15.00;;;;;;;;;;4949151;28;20214;-75
2021/12/13 07:35:31;;;;;;;19.53;12.37;;;;;;;;;;4917133;29;20217;-77
2021/12/13 07:37:57;;;;;;;18.53;13.30;;;;;;;;;;4930892;29;20187;-77
2021/12/13 07:40:23;;;;;;;19.57;14.97;;;;;;;;;;4928777;29;20189;-77
2021/12/13 07:43:05;;;;;;;20.17;15.47;;;;;;;;;;4932610;29;20585;-76
2021/12/13 07:45:51;;;;;;;18.43;14.00;;;;;;;;;;4931306;29;20194;-77
2021/12/13 07:48:38;;;;;;;15.87;12.53;;;;;;;;;;4930522;29;20565;-77
2021/12/13 07:51:07;;;;;;;13.40;10.27;;;;;;;;;;4922492;29;20200;-76
2021/12/13 07:53:54;;;;;;;14.63;10.17;;;;;;;;;;4925987;29;20221;-74
2021/12/13 07:56:29;;;;;;;11.37;9.40;;;;;;;;;;4946863;28;20209;-77
2021/12/13 07:59:00;;;;;;;14.37;11.43;;;;;;;;;;4927099;29;20744;-76
2021/12/13 08:01:28;;;;;;;12.83;9.93;;;;;;;;;;4917434;29;20197;-76
2021/12/13 08:03:57;;;;;;;13.97;10.93;;;;;;;;;;4925320;29;20294;-76
2021/12/13 08:06:26;;;;;;;12.33;10.03;;;;;;;;;;4930708;29;20286;-76
2021/12/13 08:08:55;;;;;;;13.07;10.70;;;;;;;;;;4931522;29;20657;-76
2021/12/13 08:11:41;;;;;;;15.47;12.03;;;;;;;;;;4951209;28;20564;-76
2021/12/13 08:14:08;;;;;;;13.67;10.20;;;;;;;;;;4927842;29;20589;-76
2021/12/13 08:16:37;;;;;;;12.60;9.50;;;;;;;;;;4929428;29;20240;-75
2021/12/13 08:19:05;;;;;;;13.27;9.83;;;;;;;;;;4927452;29;20209;-76
2021/12/13 08:21:36;;;;;;;13.07;10.40;;;;;;;;;;4942607;28;20182;-76
2021/12/13 08:24:03;;;;;;;14.90;11.33;;;;;;;;;;4926983;29;20564;-76
2021/12/13 08:26:41;;;;;;;12.93;10.47;;;;;;;;;;4943074;28;20257;-76
2021/12/13 08:29:21;;;;;;;15.07;10.60;;;;;;;;;;4941420;28;20533;-76
2021/12/13 08:31:51;;;;;;;14.20;10.03;;;;;;;;;;4930597;29;20978;-76
2021/12/13 08:34:26;;;;;;;14.50;10.87;;;;;;;;;;4933389;29;20200;-76
2021/12/13 08:36:52;;;;;;;15.20;11.27;;;;;;;;;;4937128;29;20213;-76
2021/12/13 08:39:33;;;;;;;15.07;10.83;;;;;;;;;;4939348;29;20193;-77
2021/12/13 08:42:01;;;;;;;16.37;11.97;;;;;;;;;;4919708;29;20214;-76
2021/12/13 08:44:31;;;;;;;15.13;11.50;;;;;;;;;;4949287;29;20186;-77
2021/12/13 08:47:06;;;;;;;22.77;14.17;;;;;;;;;;4932304;29;20182;-77
2021/12/13 08:49:35;;;;;;;18.27;13.43;;;;;;;;;;4916795;29;20179;-76
2021/12/13 08:52:06;;;;;;;19.77;14.00;;;;;;;;;;4884482;29;20293;-76
2021/12/13 08:54:51;;;;;;;19.20;13.70;;;;;;;;;;4917702;29;20191;-76
2021/12/13 08:57:26;;;;;;;25.33;16.57;;;;;;;;;;4950230;29;20196;-76
2021/12/13 08:59:53;;;;;;;23.53;16.17;;;;;;;;;;4950481;29;20232;-76
2021/12/13 09:02:20;;;;;;;25.43;17.83;;;;;;;;;;4934166;29;20214;-76
2021/12/13 09:05:16;;;;;;;27.80;17.97;;;;;;;;;;4934562;29;20186;-76
2021/12/13 09:08:02;;;;;;;26.50;17.07;;;;;;;;;;4931551;29;20212;-76
2021/12/13 09:10:42;;;;;;;24.20;15.40;;;;;;;;;;4949613;29;20214;-76
2021/12/13 09:13:08;;;;;;;24.13;15.43;;;;;;;;;;4948336;28;20209;-76
2021/12/13 09:15:35;;;;;;;19.93;14.03;;;;;;;;;;4921805;29;20237;-76
2021/12/13 09:18:01;;;;;;;19.77;14.03;;;;;;;;;;4914739;29;20609;-76
2021/12/13 09:20:31;;;;;;;22.33;13.93;;;;;;;;;;4929213;29;20194;-76
2021/12/13 09:23:12;;;;;;;20.93;13.77;;;;;;;;;;4933981;29;20252;-77
2021/12/13 09:25:45;;;;;;;18.33;13.17;;;;;;;;;;4934116;29;20282;-76
2021/12/13 09:28:16;;;;;;;18.37;13.10;;;;;;;;;;4926087;29;20673;-76
2021/12/13 09:30:49;;;;;;;17.60;12.30;;;;;;;;;;4925423;29;20250;-76
2021/12/13 09:33:15;;;;;;;15.77;12.20;;;;;;;;;;4928991;29;20256;-76
2021/12/13 09:35:43;;;;;;;16.33;11.90;;;;;;;;;;4930004;29;20949;-76
2021/12/13 09:38:16;;;;;;;20.10;12.47;;;;;;;;;;4933749;29;20190;-76
2021/12/13 09:40:42;;;;;;;18.20;12.67;;;;;;;;;;4932423;29;20186;-75
2021/12/13 09:43:08;;;;;;;17.53;11.83;;;;;;;;;;4926446;29;20224;-76
2021/12/13 09:45:53;;;;;;;19.37;12.20;;;;;;;;;;4917440;29;20268;-76
2021/12/13 09:48:22;;;;;;;16.43;12.20;;;;;;;;;;4922568;29;20562;-76
2021/12/13 09:50:50;;;;;;;17.13;12.53;;;;;;;;;;4926266;29;20674;-76
2021/12/13 09:53:17;;;;;;;16.30;11.73;;;;;;;;;;4929695;29;20265;-76
2021/12/13 09:55:47;;;;;;;16.60;12.17;;;;;;;;;;4914603;29;20693;-76
2021/12/13 09:58:18;;;;;;;18.43;12.57;;;;;;;;;;4935320;29;20680;-76
2021/12/13 10:01:06;;;;;;;18.10;12.47;;;;;;;;;;4927270;29;20187;-76
2021/12/13 10:03:53;;;;;;;20.83;12.60;;;;;;;;;;4926988;29;20205;-76
2021/12/13 10:06:21;;;;;;;18.07;11.23;;;;;;;;;;4928977;29;20236;-76
2021/12/13 10:08:54;;;;;;;19.57;12.27;;;;;;;;;;4933183;29;20741;-76
2021/12/13 10:11:24;;;;;;;16.77;12.47;;;;;;;;;;4933060;29;20201;-76
2021/12/13 10:13:50;;;;;;;18.20;11.97;;;;;;;;;;4931015;29;20569;-76
2021/12/13 10:16:19;;;;;;;15.53;11.53;;;;;;;;;;4931485;29;20221;-77
2021/12/13 10:18:47;;;;;;;17.20;11.80;;;;;;;;;;4931600;29;20197;-77
2021/12/13 10:21:17;;;;;;;16.87;12.77;;;;;;;;;;4916904;29;20178;-76
2021/12/13 10:23:47;;;;;;;16.27;12.40;;;;;;;;;;4932815;29;20241;-77
2021/12/13 10:26:14;;;;;;;18.83;13.30;;;;;;;;;;4947001;29;20198;-77
2021/12/13 10:28:42;;;;;;;15.17;11.47;;;;;;;;;;4931217;29;20204;-76
2021/12/13 10:31:12;;;;;;;16.83;12.80;;;;;;;;;;4947721;29;20842;-77
2021/12/13 10:33:38;;;;;;;17.13;12.47;;;;;;;;;;4932935;29;20224;-77
2021/12/13 10:36:06;;;;;;;15.83;11.53;;;;;;;;;;4933172;29;20769;-76
2021/12/13 10:38:35;;;;;;;16.47;11.83;;;;;;;;;;4932225;29;20186;-76
2021/12/13 10:41:10;;;;;;;16.37;11.10;;;;;;;;;;4917144;29;20193;-76
2021/12/13 10:43:42;;;;;;;16.57;11.37;;;;;;;;;;4931012;29;20218;-76
2021/12/13 10:46:11;;;;;;;15.60;11.80;;;;;;;;;;4926929;29;20201;-76
2021/12/13 10:48:44;;;;;;;15.90;12.13;;;;;;;;;;4925936;29;20215;-76
2021/12/13 10:51:20;;;;;;;17.77;11.57;;;;;;;;;;4914112;29;20189;-77
2021/12/13 10:53:47;;;;;;;16.07;11.70;;;;;;;;;;4898090;29;20210;-77
2021/12/13 10:56:19;;;;;;;11.80;9.93;;;;;;;;;;4914775;29;20222;-77
2021/12/13 10:58:47;;;;;;;14.00;10.13;;;;;;;;;;4921823;29;20252;-76
2021/12/13 11:01:17;;;;;;;13.00;9.60;;;;;;;;;;4936610;29;20194;-76
2021/12/13 11:03:44;;;;;;;13.40;10.70;;;;;;;;;;4938400;29;20197;-77
2021/12/13 11:06:11;;;;;;;11.73;9.43;;;;;;;;;;4938403;29;20189;-76
2021/12/13 11:08:41;;;;;;;10.97;8.63;;;;;;;;;;4936749;29;20310;-76
2021/12/13 11:11:22;;;;;;;12.27;8.50;;;;;;;;;;4937286;29;20249;-76
2021/12/13 11:13:51;;;;;;;11.07;7.73;;;;;;;;;;4930589;29;20210;-76
2021/12/13 11:16:20;;;;;;;9.77;7.50;;;;;;;;;;4934354;29;20264;-77
2021/12/13 11:18:46;;;;;;;10.87;8.47;;;;;;;;;;4936211;29;20277;-77
2021/12/13 11:21:15;;;;;;;10.27;8.30;;;;;;;;;;4936074;29;20194;-76
2021/12/13 11:23:42;;;;;;;8.80;7.30;;;;;;;;;;4936101;29;20690;-75
2021/12/13 11:26:10;;;;;;;13.20;9.23;;;;;;;;;;4936962;29;20185;-75
2021/12/13 11:28:37;;;;;;;12.90;8.63;;;;;;;;;;4927175;29;20585;-74
2021/12/13 11:31:09;;;;;;;13.80;9.70;;;;;;;;;;4925988;29;20214;-75
2021/12/13 11:33:38;;;;;;;13.47;9.73;;;;;;;;;;4923538;29;20301;-75
2021/12/13 11:36:08;;;;;;;11.57;8.40;;;;;;;;;;4930680;29;20226;-75
2021/12/13 11:38:46;;;;;;;11.97;8.33;;;;;;;;;;4926195;29;20217;-77
2021/12/13 11:41:31;;;;;;;13.77;8.93;;;;;;;;;;4926663;29;20190;-76
2021/12/13 11:44:18;;;;;;;12.20;8.10;;;;;;;;;;4944651;29;20190;-77
2021/12/13 11:46:50;;;;;;;12.33;8.40;;;;;;;;;;4928648;29;20190;-77
2021/12/13 11:49:35;;;;;;;14.70;8.73;;;;;;;;;;4921590;29;20274;-77
2021/12/13 11:52:07;;;;;;;15.20;8.57;;;;;;;;;;4930415;29;20217;-77
2021/12/13 11:54:43;;;;;;;13.33;9.37;;;;;;;;;;4925071;29;20277;-76
2021/12/13 11:57:22;;;;;;;11.87;8.53;;;;;;;;;;4925722;29;20213;-76
2021/12/13 11:59:57;;;;;;;13.67;10.00;;;;;;;;;;4925536;29;20232;-77
2021/12/13 12:02:31;;;;;;;13.47;9.77;;;;;;;;;;4927209;29;20204;-80
2021/12/13 12:05:06;;;;;;;15.00;9.90;;;;;;;;;;4932462;29;20198;-80
2021/12/13 12:07:40;;;;;;;13.57;9.83;;;;;;;;;;4925873;29;20185;-79
2021/12/13 12:10:25;;;;;;;14.60;10.40;;;;;;;;;;4923023;29;20198;-82
2021/12/13 12:12:55;;;;;;;14.40;9.77;;;;;;;;;;4926424;29;20206;-78
2021/12/13 12:15:22;;;;;;;11.73;9.23;;;;;;;;;;4927516;29;20222;-80
2021/12/13 12:17:50;;;;;;;13.73;9.27;;;;;;;;;;4925441;29;20194;-80
2021/12/13 12:20:18;;;;;;;11.70;8.90;;;;;;;;;;4927972;29;20630;-80
2021/12/13 12:22:50;;;;;;;12.57;8.97;;;;;;;;;;4927045;29;20292;-79
2021/12/13 12:25:17;;;;;;;9.47;7.40;;;;;;;;;;4933104;29;20197;-80
2021/12/13 12:27:43;;;;;;;8.73;6.90;;;;;;;;;;4949692;29;20193;-80
2021/12/13 12:30:12;;;;;;;9.07;6.50;;;;;;;;;;4949512;29;20202;-80
2021/12/13 12:32:45;;;;;;;9.43;6.83;;;;;;;;;;4948561;28;20229;-80
2021/12/13 12:35:17;;;;;;;8.70;6.73;;;;;;;;;;4948959;29;20547;-79
2021/12/13 12:38:11;;;;;;;9.07;7.07;;;;;;;;;;4927152;29;20547;-80
2021/12/13 12:40:37;;;;;;;9.23;7.47;;;;;;;;;;4911452;29;20190;-79
2021/12/13 12:43:11;;;;;;;10.10;7.60;;;;;;;;;;4927972;29;20209;-80
2021/12/13 12:45:37;;;;;;;10.73;7.23;;;;;;;;;;4924713;29;20191;-79
2021/12/13 12:48:09;;;;;;;10.47;7.30;;;;;;;;;;4933687;29;20605;-79
2021/12/13 12:50:49;;;;;;;9.33;6.97;;;;;;;;;;4947505;29;20182;-79
2021/12/13 12:53:18;;;;;;;9.13;6.60;;;;;;;;;;4926594;29;20209;-78
2021/12/13 12:55:56;;;;;;;7.10;5.93;;;;;;;;;;4930745;29;20213;-79
2021/12/13 12:58:28;;;;;;;8.30;6.30;;;;;;;;;;4926696;29;20182;-80
2021/12/13 13:00:55;;;;;;;7.20;6.23;;;;;;;;;;4948018;29;20265;-80
2021/12/13 13:03:32;;;;;;;9.67;6.90;;;;;;;;;;4945766;28;20240;-78
2021/12/13 13:06:03;;;;;;;8.07;6.60;;;;;;;;;;4948227;29;20198;-80
2021/12/13 13:08:31;;;;;;;9.70;6.77;;;;;;;;;;4926249;29;20194;-77
2021/12/13 13:13:43;;;;;;;6.73;6.03;;;;;;;;;;4931014;29;20673;-77
2021/12/13 13:16:10;;;;;;;9.60;6.93;;;;;;;;;;4935799;29;20224;-77
2021/12/13 13:18:38;;;;;;;9.43;7.07;;;;;;;;;;4931731;29;20563;-77
2021/12/13 13:21:05;;;;;;;8.70;6.53;;;;;;;;;;4933876;29;20189;-77
2021/12/13 13:23:53;;;;;;;11.60;7.23;;;;;;;;;;4919300;29;20304;-77
2021/12/13 13:26:20;;;;;;;9.20;6.80;;;;;;;;;;4919853;29;20230;-79
2021/12/13 13:28:54;;;;;;;10.63;7.23;;;;;;;;;;4940686;29;20311;-78
2021/12/13 13:31:24;;;;;;;9.77;7.33;;;;;;;;;;4932665;29;20253;-78
2021/12/13 13:33:50;;;;;;;10.67;7.47;;;;;;;;;;4937354;29;20206;-78
2021/12/13 13:36:18;;;;;;;11.27;7.83;;;;;;;;;;4937939;29;20720;-78
2021/12/13 13:38:45;;;;;;;11.77;7.87;;;;;;;;;;4940023;29;20208;-76
2021/12/13 13:41:18;;;;;;;12.07;8.40;;;;;;;;;;4941345;29;20527;-78
2021/12/13 13:43:44;;;;;;;15.77;11.37;;;;;;;;;;4939150;28;20242;-78
2021/12/13 13:46:10;;;;;;;14.47;10.73;;;;;;;;;;4936233;29;20218;-77
2021/12/13 13:48:38;;;;;;;10.07;8.33;;;;;;;;;;4934232;29;20275;-78
2021/12/13 13:51:10;;;;;;;11.17;7.83;;;;;;;;;;4937855;29;20190;-77
2021/12/13 13:53:44;;;;;;;9.37;7.50;;;;;;;;;;4936997;29;20293;-78
2021/12/13 13:56:15;;;;;;;9.97;8.00;;;;;;;;;;4934254;29;20232;-77
2021/12/13 13:58:49;;;;;;;12.60;8.33;;;;;;;;;;4926813;29;20434;-77
2021/12/13 14:01:22;;;;;;;10.07;7.83;;;;;;;;;;4920427;29;20194;-77
2021/12/13 14:03:50;;;;;;;10.90;7.70;;;;;;;;;;4930086;29;20579;-77
2021/12/13 14:06:18;;;;;;;11.40;7.77;;;;;;;;;;4931909;29;20198;-78
2021/12/13 14:08:57;;;;;;;11.10;8.70;;;;;;;;;;4929156;29;20602;-77
2021/12/13 14:11:24;;;;;;;9.50;7.37;;;;;;;;;;4938706;28;20194;-77
2021/12/13 14:13:51;;;;;;;10.47;8.30;;;;;;;;;;4935133;29;20229;-77
2021/12/13 14:16:19;;;;;;;11.23;8.80;;;;;;;;;;4935971;29;20309;-78
2021/12/13 14:18:45;;;;;;;11.40;8.73;;;;;;;;;;4929209;29;20218;-78
2021/12/13 14:21:13;;;;;;;9.87;8.10;;;;;;;;;;4927025;29;20707;-78
2021/12/13 14:23:41;;;;;;;10.33;7.97;;;;;;;;;;4932505;29;20213;-78
2021/12/13 14:26:16;;;;;;;9.80;7.67;;;;;;;;;;4939876;29;20248;-78
2021/12/13 14:28:43;;;;;;;10.30;8.43;;;;;;;;;;4927989;29;20279;-78
2021/12/13 14:31:12;;;;;;;12.23;8.97;;;;;;;;;;4950311;29;20181;-75
2021/12/13 14:33:40;;;;;;;12.20;8.93;;;;;;;;;;4929472;29;20708;-74
2021/12/13 14:36:30;;;;;;;11.90;8.97;;;;;;;;;;4928541;29;20280;-75
2021/12/13 14:39:08;;;;;;;12.90;9.70;;;;;;;;;;4919943;29;20221;-75
2021/12/13 14:41:36;;;;;;;13.47;9.40;;;;;;;;;;4944299;29;20193;-75
2021/12/13 14:44:05;;;;;;;14.17;10.80;;;;;;;;;;4911589;29;20189;-75
2021/12/13 14:46:34;;;;;;;12.70;9.97;;;;;;;;;;4923290;29;20186;-71
2021/12/13 14:49:01;;;;;;;13.50;10.23;;;;;;;;;;4921408;29;20608;-75
2021/12/13 14:51:28;;;;;;;11.57;9.07;;;;;;;;;;4924945;29;20179;-76
2021/12/13 14:53:59;;;;;;;13.97;9.77;;;;;;;;;;4922158;29;21024;-77
2021/12/13 14:56:25;;;;;;;12.67;9.50;;;;;;;;;;4921858;29;20213;-75